Time;durP1;ratioP1;P1;durP2;ratioP2;P2;SDS_P1;SDS_P2;PMS_P1;PMS_P2;Temp;Humidity;BMP_temperature;BMP_pressure;BME280_temperature;BME280_humidity;BME280_pressure;Samples;Min_cycle;Max_cycle;Signal;HPM_P1;HPM_P2
2023/12/24 00:01:24;;;;;;;;;;;;;;;0.33;94.11;98468.04;1731517;83;25627;-65
2023/12/24 00:03:51;;;;;;;16.45;7.37;;;;;;;0.35;94.03;98469.87;1729001;83;25480;-66
2023/12/24 00:06:20;;;;;;;19.10;9.50;;;;;;;0.36;93.97;98466.14;1702266;83;28461;-66
2023/12/24 00:08:49;;;;;;;22.62;10.00;;;;;;;0.40;93.95;98471.68;1728895;83;25900;-65
2023/12/24 00:11:15;;;;;;;19.80;9.00;;;;;;;0.42;93.92;98474.06;1726586;83;25526;-66
2023/12/24 00:13:44;;;;;;;14.93;7.80;;;;;;;0.43;93.96;98478.31;1728936;83;26266;-65
2023/12/24 00:16:12;;;;;;;14.87;6.97;;;;;;;0.44;94.02;98463.91;1729012;83;25606;-65
2023/12/24 00:18:40;;;;;;;12.28;7.10;;;;;;;0.46;94.10;98477.72;1702095;83;27924;-65
2023/12/24 00:21:07;;;;;;;26.07;7.90;;;;;;;0.47;94.00;98485.96;1728826;83;25709;-65
2023/12/24 00:23:36;;;;;;;17.50;6.92;;;;;;;0.45;94.03;98482.80;1728964;83;25637;-66
2023/12/24 00:26:04;;;;;;;14.87;6.22;;;;;;;0.46;93.88;98486.51;1728961;83;25802;-66
2023/12/24 00:28:32;;;;;;;13.83;6.53;;;;;;;0.44;93.50;98487.31;1728453;83;25489;-66
2023/12/24 00:31:00;;;;;;;10.00;6.05;;;;;;;0.41;93.16;98487.91;1728934;83;27295;-65
2023/12/24 00:33:29;;;;;;;12.30;6.90;;;;;;;0.39;92.94;98499.34;1729115;83;25728;-65
2023/12/24 00:35:57;;;;;;;15.00;6.20;;;;;;;0.35;92.82;98503.12;1728963;83;25391;-65
2023/12/24 00:38:25;;;;;;;11.33;5.58;;;;;;;0.33;92.69;98505.83;1701898;83;25754;-65
2023/12/24 00:40:53;;;;;;;10.70;6.30;;;;;;;0.28;92.52;98505.34;1728925;83;25592;-65
2023/12/24 00:43:23;;;;;;;15.70;6.78;;;;;;;0.27;92.35;98514.92;1729109;83;28059;-66
2023/12/24 00:45:52;;;;;;;14.15;6.10;;;;;;;0.23;92.22;98520.03;1728901;83;25759;-64
2023/12/24 00:48:21;;;;;;;15.30;6.92;;;;;;;0.18;91.98;98521.41;1728944;83;25552;-65
2023/12/24 00:50:48;;;;;;;13.10;7.15;;;;;;;0.14;91.81;98525.73;1728917;83;25624;-65
2023/12/24 00:53:16;;;;;;;15.68;7.35;;;;;;;0.09;91.75;98527.11;1728964;83;25598;-64
2023/12/24 00:55:45;;;;;;;15.55;7.67;;;;;;;0.04;91.66;98527.17;1728912;83;28066;-65
2023/12/24 00:58:14;;;;;;;17.80;5.67;;;;;;;-0.01;91.74;98539.42;1728857;83;25488;-65
2023/12/24 01:00:41;;;;;;;8.20;5.70;;;;;;;-0.05;91.58;98543.73;1729056;83;25458;-65
2023/12/24 01:03:10;;;;;;;12.43;5.30;;;;;;;-0.09;91.79;98544.02;1728881;83;26452;-65
2023/12/24 01:05:38;;;;;;;8.70;4.80;;;;;;;-0.09;91.95;98548.00;1701880;83;25597;-65
2023/12/24 01:08:06;;;;;;;10.40;4.78;;;;;;;-0.09;91.95;98553.86;1728936;83;28064;-65
2023/12/24 01:10:34;;;;;;;10.20;4.58;;;;;;;-0.08;92.03;98554.92;1728486;83;25796;-65
2023/12/24 01:13:02;;;;;;;8.95;4.55;;;;;;;-0.07;92.06;98563.16;1728188;83;25647;-65
2023/12/24 01:15:30;;;;;;;9.03;3.70;;;;;;;-0.05;92.00;98560.20;1728131;83;26346;-65
2023/12/24 01:17:58;;;;;;;9.93;4.75;;;;;;;-0.03;91.98;98566.83;1728247;83;25745;-65
2023/12/24 01:20:25;;;;;;;9.65;4.53;;;;;;;-0.02;91.92;98572.93;1701110;83;28145;-66
2023/12/24 01:22:52;;;;;;;9.45;4.45;;;;;;;0.00;91.82;98573.46;1701012;83;26363;-66
2023/12/24 01:25:21;;;;;;;9.45;4.12;;;;;;;0.01;91.69;98579.02;1728378;83;25646;-66
2023/12/24 01:27:52;;;;;;;9.63;4.53;;;;;;;0.03;91.62;98569.44;1701914;83;25656;-67
2023/12/24 01:30:19;;;;;;;8.55;4.15;;;;;;;0.05;91.62;98576.59;1728421;82;25645;-65
2023/12/24 01:32:47;;;;;;;10.05;4.85;;;;;;;0.07;91.58;98580.56;1729041;83;27362;-66
2023/12/24 01:35:15;;;;;;;8.40;4.65;;;;;;;0.08;91.35;98576.03;1728837;83;25662;-66
2023/12/24 01:37:43;;;;;;;10.18;5.12;;;;;;;0.09;91.24;98585.06;1728954;83;25570;-66
2023/12/24 01:40:12;;;;;;;11.57;5.00;;;;;;;0.10;91.07;98581.85;1728885;83;25739;-66
2023/12/24 01:42:40;;;;;;;8.37;3.87;;;;;;;0.09;90.95;98586.39;1702258;83;25486;-66
2023/12/24 01:45:08;;;;;;;13.68;4.60;;;;;;;0.10;90.93;98593.30;1702008;83;28299;-66
2023/12/24 01:47:36;;;;;;;13.20;5.10;;;;;;;0.10;90.85;98602.61;1729106;83;25587;-66
2023/12/24 01:50:07;;;;;;;7.87;4.00;;;;;;;0.12;90.80;98615.08;1729154;83;25636;-66
2023/12/24 01:52:36;;;;;;;12.43;5.40;;;;;;;0.13;90.73;98609.22;1728945;83;25790;-66
2023/12/24 01:55:06;;;;;;;9.95;4.55;;;;;;;0.11;90.44;98605.50;1702256;83;25254;-66
2023/12/24 01:57:35;;;;;;;14.73;5.22;;;;;;;0.12;90.40;98615.59;1728954;83;27303;-65
2023/12/24 02:00:05;;;;;;;10.43;4.85;;;;;;;0.10;90.35;98619.89;1728969;83;25415;-66
2023/12/24 02:02:34;;;;;;;7.50;4.62;;;;;;;0.11;90.00;98622.00;1702086;83;25484;-67
2023/12/24 02:05:02;;;;;;;;;;;;;;;0.07;89.73;98623.63;1731503;83;25604;-65
2023/12/24 02:07:34;;;;;;;14.05;3.75;;;;;;;0.05;89.53;98628.43;1714360;83;25680;-66
2023/12/24 02:10:01;;;;;;;6.33;4.00;;;;;;;0.01;89.49;98630.08;1728203;83;27338;-65
2023/12/24 02:12:28;;;;;;;;;;;;;;;-0.02;89.32;98630.89;1731438;83;25638;-66
2023/12/24 02:14:57;;;;;;;5.28;3.92;;;;;;;-0.05;89.14;98636.77;1728920;83;25673;-66
2023/12/24 02:17:26;;;;;;;6.40;3.50;;;;;;;-0.07;89.05;98640.76;1728865;83;26501;-65
2023/12/24 02:19:55;;;;;;;5.15;3.27;;;;;;;-0.13;88.99;98643.22;1728943;83;25406;-66
2023/12/24 02:22:23;;;;;;;10.40;3.62;;;;;;;-0.16;88.96;98641.89;1728881;83;27393;-66
2023/12/24 02:24:52;;;;;;;6.87;3.33;;;;;;;-0.18;88.90;98649.36;1729067;83;25776;-66
2023/12/24 02:27:36;;;;;;;7.87;3.07;;;;;;;-0.22;88.73;98638.50;1729312;83;25565;-65
2023/12/24 02:30:15;;;;;;;10.93;3.65;;;;;;;-0.27;88.66;98643.06;1681715;84;25607;-65
2023/12/24 02:32:45;;;;;;;5.95;3.00;;;;;;;-0.32;88.61;98652.37;1700324;83;25592;-66
2023/12/24 02:35:15;;;;;;;10.08;4.15;;;;;;;-0.36;88.67;98652.69;1701039;84;27900;-65
2023/12/24 02:37:44;;;;;;;7.20;3.80;;;;;;;-0.38;88.76;98655.61;1700806;84;25745;-66
2023/12/24 02:40:13;;;;;;;7.22;3.62;;;;;;;-0.41;88.82;98655.64;1700925;83;25429;-66
2023/12/24 02:42:41;;;;;;;6.47;3.65;;;;;;;-0.43;88.91;98657.76;1700319;84;25789;-66
2023/12/24 02:45:11;;;;;;;8.25;3.75;;;;;;;-0.43;89.03;98665.73;1700549;84;32366;-66
2023/12/24 02:47:39;;;;;;;5.10;3.50;;;;;;;-0.43;89.25;98666.27;1700630;84;27428;-66
2023/12/24 02:50:09;;;;;;;11.45;4.20;;;;;;;-0.41;89.41;98672.91;1700491;84;25803;-66
2023/12/24 02:52:38;;;;;;;8.13;4.12;;;;;;;-0.40;89.56;98677.69;1700589;83;25415;-66
2023/12/24 02:55:07;;;;;;;8.13;4.17;;;;;;;-0.39;89.54;98673.97;1700378;83;25634;-66
2023/12/24 02:57:34;;;;;;;4.87;3.45;;;;;;;-0.37;89.51;98677.14;1700569;84;25470;-66
2023/12/24 03:00:08;;;;;;;14.18;4.45;;;;;;;-0.37;89.47;98683.78;1700533;83;28103;-66
2023/12/24 03:02:35;;;;;;;7.83;3.77;;;;;;;-0.34;89.49;98685.08;1686333;84;25853;-66
2023/12/24 03:05:04;;;;;;;7.67;4.55;;;;;;;-0.33;89.48;98684.02;1700378;84;25394;-66
2023/12/24 03:07:32;;;;;;;5.87;3.95;;;;;;;-0.31;89.40;98679.22;1700489;84;25829;-66
2023/12/24 03:10:00;;;;;;;4.95;3.50;;;;;;;-0.31;89.32;98691.95;1700487;84;25654;-66
2023/12/24 03:12:29;;;;;;;7.95;3.58;;;;;;;-0.30;89.21;98695.42;1700520;83;28003;-66
2023/12/24 03:14:57;;;;;;;9.38;4.47;;;;;;;-0.28;89.21;98703.91;1709993;83;25710;-66
2023/12/24 03:17:25;;;;;;;7.83;4.47;;;;;;;-0.29;89.08;98708.95;1700383;84;25425;-66
2023/12/24 03:19:52;;;;;;;7.55;3.67;;;;;;;-0.28;89.08;98709.23;1710020;83;26636;-66
2023/12/24 03:22:22;;;;;;;8.53;3.77;;;;;;;-0.28;89.07;98717.20;1651016;84;25445;-66
2023/12/24 03:24:50;;;;;;;6.67;3.33;;;;;;;-0.28;89.07;98717.20;1700400;83;27777;-66
2023/12/24 03:27:18;;;;;;;7.47;3.70;;;;;;;-0.28;89.12;98719.31;1700266;84;25595;-66
2023/12/24 03:29:46;;;;;;;9.40;3.80;;;;;;;-0.27;89.08;98721.45;1700447;84;25546;-66
2023/12/24 03:32:13;;;;;;;6.65;3.55;;;;;;;-0.27;89.11;98720.91;1652146;84;26208;-66
2023/12/24 03:34:41;;;;;;;6.47;3.37;;;;;;;-0.29;89.03;98723.05;1700380;84;25658;-66
2023/12/24 03:37:08;;;;;;;6.15;3.77;;;;;;;-0.28;88.95;98729.16;1700363;84;27453;-66
2023/12/24 03:39:35;;;;;;;6.00;3.60;;;;;;;-0.29;89.06;98735.53;1700294;84;25810;-66
2023/12/24 03:42:03;;;;;;;7.05;3.52;;;;;;;-0.27;89.13;98732.09;1699684;84;25606;-66
2023/12/24 03:44:29;;;;;;;7.05;3.35;;;;;;;-0.26;89.06;98733.66;1700323;84;25629;-66
2023/12/24 03:46:56;;;;;;;10.75;4.03;;;;;;;-0.26;89.16;98745.61;1676281;84;25672;-66
2023/12/24 03:49:24;;;;;;;4.83;3.35;;;;;;;-0.26;89.13;98737.64;1699708;84;27935;-66
2023/12/24 03:51:51;;;;;;;7.33;3.42;;;;;;;-0.25;89.12;98748.54;1700269;84;25628;-66
2023/12/24 03:54:21;;;;;;;7.62;3.33;;;;;;;-0.25;89.11;98757.30;1700375;84;25556;-66
2023/12/24 03:56:48;;;;;;;5.97;3.45;;;;;;;-0.26;89.05;98756.24;1700065;84;25621;-66
2023/12/24 03:59:16;;;;;;;7.60;3.55;;;;;;;-0.27;89.01;98766.08;1700402;84;25466;-66
2023/12/24 04:01:46;;;;;;;7.62;3.72;;;;;;;-0.30;88.92;98766.63;1700403;84;27333;-66
2023/12/24 04:04:14;;;;;;;6.67;3.12;;;;;;;-0.33;88.83;98769.05;1676228;84;25607;-66
2023/12/24 04:06:42;;;;;;;6.72;3.30;;;;;;;-0.35;88.72;98775.17;1676170;84;25502;-66
2023/12/24 04:09:10;;;;;;;6.70;3.33;;;;;;;-0.40;88.60;98773.33;1699625;84;26198;-66
2023/12/24 04:11:38;;;;;;;7.80;3.58;;;;;;;-0.45;88.62;98779.45;1700409;84;25622;-66
2023/12/24 04:14:06;;;;;;;9.30;3.58;;;;;;;-0.50;88.61;98776.81;1700342;84;27351;-66
2023/12/24 04:16:34;;;;;;;7.15;4.08;;;;;;;-0.55;88.62;98771.53;1700227;84;25411;-66
2023/12/24 04:19:03;;;;;;;8.65;4.33;;;;;;;-0.59;88.62;98777.13;1700492;84;25661;-66
2023/12/24 04:21:33;;;;;;;8.43;3.27;;;;;;;-0.65;88.69;98779.00;1700293;84;26185;-66
2023/12/24 04:24:02;;;;;;;;;;;;;;;-0.70;88.62;98780.88;1702904;84;25404;-66
2023/12/24 04:26:30;;;;;;;7.50;3.02;;;;;;;-0.76;88.76;98780.91;1700355;84;27410;-66
2023/12/24 04:28:57;;;;;;;8.25;3.65;;;;;;;-0.82;88.79;98781.19;1676289;84;26560;-65
2023/12/24 04:31:24;;;;;;;8.63;3.35;;;;;;;-0.86;89.05;98778.28;1682676;83;25479;-65
2023/12/24 04:33:52;;;;;;;9.55;3.15;;;;;;;-0.88;89.30;98775.66;1712694;83;26199;-65
2023/12/24 04:36:21;;;;;;;7.95;2.33;;;;;;;-0.93;89.43;98776.45;1712970;83;25619;-65
2023/12/24 04:38:49;;;;;;;8.95;3.10;;;;;;;-0.96;89.58;98783.63;1712745;83;27590;-65
2023/12/24 04:41:21;;;;;;;6.95;3.42;;;;;;;-1.01;89.49;98784.42;1712641;83;25572;-65
2023/12/24 04:43:48;;;;;;;7.22;3.77;;;;;;;-1.04;89.69;98789.48;1712694;83;25616;-65
2023/12/24 04:46:16;;;;;;;8.15;3.75;;;;;;;-1.07;89.82;98788.68;1712692;83;26164;-65
2023/12/24 04:48:45;;;;;;;9.93;3.75;;;;;;;-1.11;90.15;98788.42;1712749;83;25471;-65
2023/12/24 04:51:13;;;;;;;11.68;3.80;;;;;;;-1.16;90.17;98794.56;1712710;83;28026;-65
2023/12/24 04:53:41;;;;;;;9.40;4.53;;;;;;;-1.18;90.22;98803.30;1712642;83;25402;-65
2023/12/24 04:56:21;;;;;;;5.87;3.77;;;;;;;-1.21;90.15;98805.69;1712865;83;25626;-65
2023/12/24 04:58:47;;;;;;;9.58;3.67;;;;;;;-1.21;91.33;98806.50;1712102;83;25611;-65
2023/12/24 05:01:18;;;;;;;8.18;3.67;;;;;;;-1.18;91.50;98799.85;1712768;83;25549;-65
2023/12/24 05:03:47;;;;;;;7.33;3.77;;;;;;;-1.20;91.38;98804.09;1690039;83;27906;-65
2023/12/24 05:06:15;;;;;;;7.03;3.40;;;;;;;-1.23;90.97;98804.63;1712773;83;25545;-65
2023/12/24 05:08:44;;;;;;;7.90;3.60;;;;;;;-1.27;91.18;98799.60;1712860;83;25612;-65
2023/12/24 05:11:13;;;;;;;5.58;3.47;;;;;;;-1.28;91.25;98811.27;1712922;83;26218;-65
2023/12/24 05:13:39;;;;;;;10.03;3.72;;;;;;;-1.30;91.20;98810.74;1712987;83;25648;-65
2023/12/24 05:16:07;;;;;;;12.50;3.58;;;;;;;-1.34;91.04;98815.00;1712720;83;27295;-65
2023/12/24 05:18:35;;;;;;;5.97;3.67;;;;;;;-1.35;91.33;98822.14;1712624;83;25391;-65
2023/12/24 05:21:04;;;;;;;9.48;3.80;;;;;;;-1.37;91.10;98823.48;1712701;83;25561;-65
2023/12/24 05:23:32;;;;;;;15.83;5.15;;;;;;;-1.40;91.12;98829.32;1712751;83;25615;-65
2023/12/24 05:26:00;;;;;;;7.67;3.67;;;;;;;-1.42;91.26;98827.47;1712762;83;25632;-65
2023/12/24 05:28:28;;;;;;;7.15;3.27;;;;;;;-1.45;91.52;98833.30;1712683;83;27504;-65
2023/12/24 05:30:55;;;;;;;6.45;3.08;;;;;;;-1.46;91.72;98837.81;1714729;82;25707;-64
2023/12/24 05:33:23;;;;;;;10.15;4.90;;;;;;;-1.48;91.64;98845.76;1729014;83;25440;-64
2023/12/24 05:35:52;;;;;;;7.55;3.75;;;;;;;-1.49;92.00;98845.52;1729078;83;26232;-64
2023/12/24 05:38:19;;;;;;;11.43;4.20;;;;;;;-1.50;92.23;98851.33;1728962;83;25595;-64
2023/12/24 05:40:48;;;;;;;11.08;3.92;;;;;;;-1.51;92.27;98853.73;1728949;83;28323;-64
2023/12/24 05:43:16;;;;;;;9.95;3.77;;;;;;;-1.52;92.32;98862.19;1728810;83;25596;-64
2023/12/24 05:45:44;;;;;;;9.15;4.03;;;;;;;-1.52;92.53;98859.54;1729002;83;25670;-64
2023/12/24 05:48:12;;;;;;;8.18;3.90;;;;;;;-1.52;92.40;98856.10;1728897;83;26302;-64
2023/12/24 05:50:41;;;;;;;14.73;3.72;;;;;;;-1.53;92.48;98862.48;1728983;83;25458;-64
2023/12/24 05:53:09;;;;;;;4.80;2.85;;;;;;;-1.53;92.55;98861.94;1728953;83;27345;-64
2023/12/24 05:55:35;;;;;;;11.83;4.20;;;;;;;-1.53;92.75;98858.50;1728838;83;25585;-64
2023/12/24 05:58:05;;;;;;;10.43;3.80;;;;;;;-1.53;92.94;98862.48;1729007;83;25567;-64
2023/12/24 06:00:34;;;;;;;8.15;3.62;;;;;;;-1.53;92.89;98878.39;1729063;83;26432;-64
2023/12/24 06:03:04;;;;;;;8.33;3.58;;;;;;;-1.54;93.28;98875.47;1729103;83;26815;-64
2023/12/24 06:05:31;;;;;;;11.93;4.25;;;;;;;-1.53;93.46;98865.92;1702312;83;27437;-64
2023/12/24 06:07:59;;;;;;;9.28;3.83;;;;;;;-1.52;93.44;98872.80;1729014;83;25668;-64
2023/12/24 06:10:27;;;;;;;12.20;3.77;;;;;;;-1.52;93.79;98866.70;1702075;83;25505;-64
2023/12/24 06:12:55;;;;;;;9.55;4.10;;;;;;;-1.51;93.55;98871.75;1729035;83;26615;-64
2023/12/24 06:15:23;;;;;;;7.70;3.98;;;;;;;-1.53;93.65;98879.19;1729122;83;25627;-64
2023/12/24 06:17:51;;;;;;;7.10;4.37;;;;;;;-1.51;93.81;98878.38;1729067;83;26847;-64
2023/12/24 06:20:19;;;;;;;6.28;4.30;;;;;;;-1.49;93.97;98876.01;1729136;83;25715;-64
2023/12/24 06:22:45;;;;;;;11.22;4.67;;;;;;;-1.48;94.10;98874.42;1702178;83;25669;-64
2023/12/24 06:25:14;;;;;;;10.68;4.75;;;;;;;-1.47;94.08;98879.97;1729055;83;25949;-64
2023/12/24 06:27:42;;;;;;;9.17;4.70;;;;;;;-1.46;94.04;98880.77;1729346;83;25418;-64
2023/12/24 06:30:12;;;;;;;8.95;3.98;;;;;;;-1.46;94.32;98882.09;1729059;83;26880;-64
2023/12/24 06:32:44;;;;;;;11.05;4.12;;;;;;;-1.42;94.40;98891.13;1728872;83;25485;-64
2023/12/24 06:35:11;;;;;;;10.10;4.40;;;;;;;-1.41;94.47;98891.41;1729122;83;25580;-64
2023/12/24 06:37:38;;;;;;;8.93;3.87;;;;;;;-1.40;94.56;98890.33;1729019;83;25686;-64
2023/12/24 06:40:08;;;;;;;7.92;4.22;;;;;;;-1.39;94.77;98899.34;1729089;83;25472;-64
2023/12/24 06:42:36;;;;;;;12.68;4.58;;;;;;;-1.36;94.82;98896.72;1729041;83;28056;-64
2023/12/24 06:45:05;;;;;;;9.50;4.12;;;;;;;-1.34;94.83;98904.66;1728968;83;25703;-64
2023/12/24 06:47:33;;;;;;;8.18;3.95;;;;;;;-1.29;95.04;98900.41;1729202;83;32402;-64
2023/12/24 06:50:01;;;;;;;8.58;4.08;;;;;;;-1.26;95.05;98897.23;1729022;83;26207;-64
2023/12/24 06:52:29;;;;;;;12.18;4.45;;;;;;;-1.25;95.14;98903.60;1702178;83;25625;-64
2023/12/24 06:54:57;;;;;;;10.40;4.33;;;;;;;-1.21;95.50;98899.38;1702336;83;27956;-64
2023/12/24 06:57:24;;;;;;;9.93;4.65;;;;;;;-1.18;95.50;98901.47;1702138;83;25610;-64
2023/12/24 06:59:50;;;;;;;13.35;4.45;;;;;;;-1.15;95.58;98905.47;1729150;83;25585;-64
2023/12/24 07:02:18;;;;;;;10.20;4.58;;;;;;;-1.13;95.62;98901.47;1729078;83;26331;-64
2023/12/24 07:04:46;;;;;;;8.33;4.17;;;;;;;-1.08;95.72;98901.23;1729012;83;25457;-64
2023/12/24 07:07:14;;;;;;;7.28;4.35;;;;;;;-1.04;95.62;98905.74;1728979;83;28094;-64
2023/12/24 07:09:42;;;;;;;7.50;4.08;;;;;;;-1.01;95.68;98907.05;1728913;83;26003;-64
2023/12/24 07:12:10;;;;;;;10.48;5.05;;;;;;;-0.99;95.67;98910.23;1729035;83;25482;-64
2023/12/24 07:14:39;;;;;;;13.22;5.08;;;;;;;-0.93;95.82;98917.69;1702115;83;26370;-65
2023/12/24 07:17:07;;;;;;;11.83;4.42;;;;;;;-0.91;95.82;98912.90;1729205;83;25580;-64
2023/12/24 07:19:35;;;;;;;10.98;4.20;;;;;;;-0.88;95.99;98911.05;1726373;83;27344;-63
2023/12/24 07:22:02;;;;;;;9.37;4.23;;;;;;;-0.87;95.95;98920.07;1729145;83;25665;-64
2023/12/24 07:24:29;;;;;;;19.67;7.53;;;;;;;-0.84;96.06;98927.48;1728965;83;25634;-64
2023/12/24 07:26:55;;;;;;;10.20;4.10;;;;;;;-0.80;96.18;98917.12;1728960;83;26323;-64
2023/12/24 07:29:22;;;;;;;9.03;4.30;;;;;;;-0.80;96.08;98919.27;1728922;83;25388;-65
2023/12/24 07:31:49;;;;;;;8.93;4.15;;;;;;;-0.74;96.09;98925.35;1724884;83;26891;-65
2023/12/24 07:34:15;;;;;;;11.35;5.00;;;;;;;-0.72;96.01;98913.92;1712677;83;25573;-64
2023/12/24 07:36:42;;;;;;;12.63;5.35;;;;;;;-0.74;96.13;98900.67;1712749;83;25500;-64
2023/12/24 07:39:11;;;;;;;10.45;5.28;;;;;;;-0.65;96.18;98907.02;1690346;83;25634;-64
2023/12/24 07:41:42;;;;;;;9.93;4.67;;;;;;;-0.64;96.23;98905.96;1714052;83;25619;-64
2023/12/24 07:44:09;;;;;;;13.70;5.40;;;;;;;-0.59;96.25;98916.58;1712785;83;27315;-64
2023/12/24 07:46:36;;;;;;;8.18;4.35;;;;;;;-0.58;96.28;98910.18;1712685;83;25624;-64
2023/12/24 07:49:03;;;;;;;13.03;4.87;;;;;;;-0.56;96.27;98902.77;1690137;83;25432;-65
2023/12/24 07:51:33;;;;;;;12.63;5.28;;;;;;;-0.51;96.39;98910.72;1712698;83;26444;-64
2023/12/24 07:54:03;;;;;;;10.90;5.42;;;;;;;-0.45;96.32;98920.25;1712915;83;25489;-65
2023/12/24 07:56:31;;;;;;;12.37;5.25;;;;;;;-0.40;96.38;98914.14;1712902;83;28061;-64
2023/12/24 07:59:00;;;;;;;12.75;4.85;;;;;;;-0.37;96.33;98922.91;1712911;83;25778;-64
2023/12/24 08:01:27;;;;;;;9.95;5.05;;;;;;;-0.33;96.44;98928.47;1712728;83;25461;-64
2023/12/24 08:03:53;;;;;;;10.60;5.33;;;;;;;-0.28;96.36;98925.80;1662455;83;26211;-64
2023/12/24 08:06:21;;;;;;;12.90;5.53;;;;;;;-0.25;96.31;98927.91;1712753;83;25606;-64
2023/12/24 08:08:49;;;;;;;11.55;5.70;;;;;;;-0.25;96.35;98930.03;1712766;83;27797;-64
2023/12/24 08:11:16;;;;;;;11.68;6.03;;;;;;;-0.17;96.41;98939.33;1712683;83;25493;-64
2023/12/24 08:13:44;;;;;;;12.15;5.80;;;;;;;-0.18;96.41;98936.39;1712736;83;25514;-64
2023/12/24 08:16:10;;;;;;;11.48;6.25;;;;;;;-0.11;96.37;98946.20;1712698;83;25660;-64
2023/12/24 08:18:38;;;;;;;11.55;6.12;;;;;;;-0.08;96.39;98935.57;1712732;83;25729;-65
2023/12/24 08:21:10;;;;;;;8.90;6.05;;;;;;;-0.05;96.41;98944.31;1690106;83;27237;-65
2023/12/24 08:23:39;;;;;;;12.53;6.08;;;;;;;-0.01;96.47;98949.36;1712733;83;25219;-65
2023/12/24 08:26:08;;;;;;;10.72;6.22;;;;;;;0.05;96.52;98954.93;1712850;83;25556;-64
2023/12/24 08:28:37;;;;;;;13.00;6.53;;;;;;;0.05;96.37;98953.60;1690029;83;26279;-64
2023/12/24 08:31:05;;;;;;;12.23;6.30;;;;;;;0.11;96.30;98953.04;1712877;83;25491;-65
2023/12/24 08:33:32;;;;;;;15.63;7.53;;;;;;;0.11;96.21;98945.84;1702419;82;27935;-65
2023/12/24 08:35:59;;;;;;;17.07;6.62;;;;;;;0.16;96.12;98951.69;1700223;84;25625;-65
2023/12/24 08:38:25;;;;;;;16.85;7.30;;;;;;;0.16;96.11;98963.11;1700298;84;25430;-65
2023/12/24 08:40:52;;;;;;;16.32;7.53;;;;;;;0.22;96.20;98959.10;1700275;84;25635;-65
2023/12/24 08:43:18;;;;;;;13.50;6.95;;;;;;;0.27;96.26;98961.73;1676176;84;25748;-65
2023/12/24 08:45:45;;;;;;;16.25;6.80;;;;;;;0.29;96.26;98960.92;1700312;84;27394;-65
2023/12/24 08:48:12;;;;;;;13.60;8.03;;;;;;;0.34;96.32;98964.37;1699535;84;25494;-65
2023/12/24 08:50:39;;;;;;;16.00;7.97;;;;;;;0.39;96.30;98962.75;1700297;84;25476;-65
2023/12/24 08:53:06;;;;;;;13.13;7.28;;;;;;;0.40;96.31;98960.36;1700250;84;25991;-65
2023/12/24 08:55:33;;;;;;;14.93;7.75;;;;;;;0.43;96.29;98955.28;1700298;84;25552;-65
2023/12/24 08:58:01;;;;;;;22.20;9.33;;;;;;;0.50;96.20;98953.11;1700282;84;27348;-65
2023/12/24 09:00:27;;;;;;;18.15;8.38;;;;;;;0.56;96.34;98955.20;1699537;84;25411;-64
2023/12/24 09:02:56;;;;;;;15.70;7.65;;;;;;;0.59;96.18;98951.20;1700264;84;25646;-64
2023/12/24 09:05:24;;;;;;;20.35;8.48;;;;;;;0.64;95.96;98952.50;1700299;84;26325;-64
2023/12/24 09:07:52;;;;;;;18.23;8.63;;;;;;;0.65;96.05;98956.22;1700291;84;25656;-65
2023/12/24 09:10:19;;;;;;;13.95;8.25;;;;;;;0.74;96.19;98959.88;1700276;84;27567;-65
2023/12/24 09:12:47;;;;;;;14.63;8.38;;;;;;;0.81;96.49;98957.45;1700445;84;25698;-65
2023/12/24 09:15:13;;;;;;;17.17;8.40;;;;;;;0.84;96.13;98948.38;1700290;84;25630;-65
2023/12/24 09:17:41;;;;;;;18.17;9.23;;;;;;;0.92;95.97;98950.99;1700229;84;26210;-65
2023/12/24 09:20:10;;;;;;;17.05;9.23;;;;;;;0.94;95.64;98946.18;1700297;84;25684;-66
2023/12/24 09:22:38;;;;;;;22.42;11.05;;;;;;;0.97;95.63;98944.30;1700426;84;27915;-65
2023/12/24 09:25:08;;;;;;;23.92;11.50;;;;;;;1.01;95.56;98948.53;1700135;84;25674;-64
2023/12/24 09:27:36;;;;;;;22.22;10.23;;;;;;;1.02;95.27;98946.92;1700420;84;25594;-65
2023/12/24 09:30:05;;;;;;;17.67;9.88;;;;;;;1.03;95.20;98953.03;1700236;84;26162;-65
2023/12/24 09:32:33;;;;;;;16.00;9.98;;;;;;;1.04;95.44;98948.77;1675595;84;25555;-64
2023/12/24 09:35:02;;;;;;;15.75;9.70;;;;;;;1.10;95.36;98940.97;1700604;84;28213;-64
2023/12/24 09:37:31;;;;;;;21.37;10.95;;;;;;;1.14;95.60;98933.22;1700414;83;25681;-65
2023/12/24 09:39:59;;;;;;;19.25;10.70;;;;;;;1.22;95.56;98943.82;1700522;84;25556;-65
2023/12/24 09:42:27;;;;;;;15.98;10.05;;;;;;;1.27;95.77;98945.11;1700389;83;25867;-65
2023/12/24 09:44:55;;;;;;;17.70;9.80;;;;;;;1.30;95.35;98941.89;1700419;83;25476;-65
2023/12/24 09:47:23;;;;;;;15.45;9.45;;;;;;;1.32;94.93;98941.06;1700437;83;27507;-65
2023/12/24 09:49:51;;;;;;;17.73;9.83;;;;;;;1.32;94.91;98941.06;1700348;84;25629;-66
2023/12/24 09:52:19;;;;;;;20.17;10.82;;;;;;;1.36;95.04;98938.08;1700431;84;25432;-65
2023/12/24 09:54:48;;;;;;;24.35;11.25;;;;;;;1.37;95.02;98929.58;1700341;83;25613;-66
2023/12/24 09:57:16;;;;;;;16.40;10.78;;;;;;;1.41;94.85;98931.92;1700678;84;25595;-65
2023/12/24 09:59:44;;;;;;;23.18;10.68;;;;;;;1.46;94.79;98928.69;1700417;83;27501;-65
2023/12/24 10:02:12;;;;;;;22.30;10.78;;;;;;;1.47;94.68;98938.80;1700325;83;25644;-64
2023/12/24 10:04:40;;;;;;;17.20;10.45;;;;;;;1.48;94.42;98931.86;1686183;84;25665;-66
2023/12/24 10:07:09;;;;;;;24.65;11.35;;;;;;;1.48;94.56;98931.86;1700374;84;25758;-65
2023/12/24 10:09:50;;;;;;;20.60;11.00;;;;;;;1.53;94.57;98924.88;1700665;84;25469;-65
2023/12/24 10:12:20;;;;;;;17.85;10.95;;;;;;;1.54;94.60;98929.92;1700429;84;27355;-65
2023/12/24 10:15:00;;;;;;;22.15;10.90;;;;;;;1.58;94.59;98926.16;1686240;84;26045;-65
2023/12/24 10:17:34;;;;;;;18.40;10.70;;;;;;;1.55;94.33;98934.71;1700465;83;25580;-65
2023/12/24 10:20:08;;;;;;;19.25;10.43;;;;;;;1.59;94.44;98926.42;1700502;83;26295;-64
2023/12/24 10:22:36;;;;;;;17.05;9.98;;;;;;;1.61;94.42;98924.27;1700477;83;25480;-64
2023/12/24 10:25:09;;;;;;;23.10;10.60;;;;;;;1.64;94.48;98923.70;1700344;84;28344;-64
2023/12/24 10:27:37;;;;;;;25.00;10.40;;;;;;;1.65;94.37;98922.61;1700369;83;25560;-64
2023/12/24 10:30:16;;;;;;;19.70;9.90;;;;;;;1.66;94.44;98919.66;1700371;83;25475;-64
2023/12/24 10:32:44;;;;;;;17.47;9.83;;;;;;;1.69;94.18;98922.31;1700522;83;25820;-65
2023/12/24 10:35:17;;;;;;;22.22;11.43;;;;;;;1.63;93.71;98921.56;1676708;84;25591;-64
2023/12/24 10:37:45;;;;;;;23.12;11.05;;;;;;;1.67;95.05;98923.93;1699541;84;27343;-64
2023/12/24 10:40:14;;;;;;;23.00;11.63;;;;;;;1.69;94.75;98916.98;1676320;84;25767;-64
2023/12/24 10:42:43;;;;;;;18.05;10.50;;;;;;;1.72;95.03;98919.61;1700525;84;25413;-64
2023/12/24 10:45:11;;;;;;;22.75;11.78;;;;;;;1.72;94.99;98913.76;1700499;84;25744;-63
2023/12/24 10:47:41;;;;;;;27.32;11.18;;;;;;;1.72;94.40;98914.28;1700500;84;25624;-64
2023/12/24 10:50:09;;;;;;;;;;;;;;;1.71;94.02;98912.16;1702997;84;26886;-64
2023/12/24 10:52:37;;;;;;;18.27;9.95;;;;;;;1.69;93.93;98914.32;1700291;84;25955;-65
2023/12/24 10:55:06;;;;;;;20.43;10.80;;;;;;;1.63;93.87;98898.11;1700362;84;25624;-65
2023/12/24 10:58:14;;;;;;;22.95;11.28;;;;;;;1.65;93.88;98897.29;1700479;84;25674;-66
2023/12/24 11:00:43;;;;;;;;;;;;;;;1.63;94.03;98885.57;1702972;84;25601;-64
2023/12/24 11:03:11;;;;;;;19.98;10.03;;;;;;;1.64;93.97;98893.05;1700405;84;27326;-63
2023/12/24 11:05:46;;;;;;;16.93;9.83;;;;;;;1.59;93.98;98880.56;1700367;84;29994;-64
2023/12/24 11:08:27;;;;;;;20.90;10.05;;;;;;;1.62;94.05;98875.22;1700423;84;25667;-63
2023/12/24 11:11:06;;;;;;;19.65;11.00;;;;;;;1.64;94.21;98877.06;1700362;84;26637;-63
2023/12/24 11:13:42;;;;;;;20.27;11.48;;;;;;;1.67;94.32;98865.28;1700580;84;25457;-63
2023/12/24 11:16:11;;;;;;;18.60;10.82;;;;;;;1.68;94.13;98868.73;1700384;84;28423;-63
2023/12/24 11:18:47;;;;;;;22.52;12.13;;;;;;;1.69;94.15;98869.00;1699595;84;25739;-63
2023/12/24 11:21:19;;;;;;;21.27;13.10;;;;;;;1.69;94.09;98863.67;1700395;84;25687;-63
2023/12/24 11:24:15;;;;;;;17.62;11.93;;;;;;;1.70;94.03;98867.13;1676531;84;26318;-63
2023/12/24 11:26:53;;;;;;;23.18;11.83;;;;;;;1.73;94.21;98874.55;1700437;84;25621;-62
2023/12/24 11:29:47;;;;;;;18.42;11.90;;;;;;;1.74;94.18;98873.45;1676647;84;28047;-63
2023/12/24 11:32:33;;;;;;;25.52;12.73;;;;;;;1.73;93.98;98864.67;1700312;84;25669;-63
2023/12/24 11:35:06;;;;;;;21.33;11.68;;;;;;;1.71;93.73;98856.73;1729025;82;25453;-64
2023/12/24 11:37:38;;;;;;;20.80;11.10;;;;;;;1.68;93.69;98848.74;1729024;83;26179;-63
2023/12/24 11:40:12;;;;;;;21.27;12.03;;;;;;;1.67;93.72;98855.95;1729064;83;25670;-63